createdAt,value
2019-02-10T16:24:13.434Z,9.00
2019-02-10T16:26:43.565Z,10.00
2019-02-10T16:29:13.759Z,9.50
2019-02-10T16:31:44.201Z,9.00
2019-02-10T16:34:14.774Z,8.80
2019-02-10T16:36:46.173Z,8.80
2019-02-10T16:39:16.906Z,8.40
2019-02-10T16:41:47.074Z,7.90
2019-02-10T16:44:19.040Z,7.60
2019-02-10T16:46:49.609Z,7.10
2019-02-10T16:49:20.079Z,7.50
2019-02-10T16:51:53.460Z,7.70
2019-02-10T16:54:23.812Z,7.60
2019-02-10T16:56:54.005Z,7.30
2019-02-10T16:59:24.478Z,7.20
2019-02-10T17:01:54.899Z,7.00
2019-02-10T17:04:25.097Z,6.30
2019-02-10T17:06:55.434Z,6.30
2019-02-10T17:09:27.705Z,6.60
2019-02-10T17:11:58.144Z,6.60
2019-02-10T17:14:28.720Z,6.50
2019-02-10T17:17:01.782Z,6.40
2019-02-10T17:19:33.282Z,6.50
2019-02-10T17:22:03.743Z,6.60
2019-02-10T17:24:33.963Z,6.80
2019-02-10T17:27:04.238Z,6.80
2019-02-10T17:29:35.110Z,6.80
2019-02-10T17:32:05.465Z,6.80
2019-02-10T17:34:35.880Z,6.80
2019-02-10T17:37:06.152Z,6.80
2019-02-10T17:39:36.437Z,6.30
2019-02-10T17:42:06.791Z,6.20
2019-02-10T17:44:36.975Z,6.30
2019-02-10T17:47:07.224Z,6.60
2019-02-10T17:49:38.106Z,6.90
2019-02-10T17:52:08.307Z,7.20
2019-02-10T17:54:38.706Z,6.60
2019-02-10T17:57:09.030Z,6.90
2019-02-10T17:59:39.437Z,7.40
2019-02-10T18:02:10.137Z,7.80
2019-02-10T18:04:40.308Z,8.10
2019-02-10T18:07:10.581Z,7.80
2019-02-10T18:09:41.354Z,7.70
2019-02-10T18:12:11.621Z,6.70
2019-02-10T18:14:59.965Z,6.20
2019-02-10T18:17:38.726Z,5.90
2019-02-10T18:20:27.679Z,5.80
2019-02-10T18:23:35.010Z,5.70
2019-02-10T18:26:25.232Z,5.40
2019-02-10T18:29:03.006Z,5.30
2019-02-10T18:31:53.264Z,5.20
2019-02-10T18:34:40.575Z,5.10
2019-02-10T18:37:24.751Z,4.90
2019-02-10T18:40:12.073Z,4.40
2019-02-10T18:42:59.858Z,4.60
2019-02-10T18:45:51.756Z,4.40
2019-02-10T18:48:47.585Z,4.60
2019-02-10T18:51:29.858Z,4.50
2019-02-10T18:54:19.475Z,4.50
2019-02-10T18:57:09.087Z,4.70
2019-02-10T19:00:07.218Z,4.60
2019-02-10T19:02:55.286Z,4.50
2019-02-10T19:06:03.591Z,4.50
2019-02-10T19:09:04.935Z,4.50
2019-02-10T19:11:54.432Z,4.40
2019-02-10T19:14:46.453Z,4.40
2019-02-10T19:17:35.459Z,4.60
2019-02-10T19:20:27.382Z,4.30
2019-02-10T19:23:15.270Z,4.20
2019-02-10T19:25:55.330Z,4.20
2019-02-10T19:28:37.930Z,4.30
2019-02-10T19:31:18.390Z,4.30
2019-02-10T19:34:19.607Z,4.10
2019-02-10T19:37:24.208Z,4.20
2019-02-10T19:40:12.236Z,4.20
2019-02-10T19:43:00.787Z,4.20
2019-02-10T19:45:53.044Z,4.30
2019-02-10T19:48:43.942Z,4.10
2019-02-10T19:51:42.560Z,4.30
2019-02-10T19:54:30.162Z,4.30
2019-02-10T19:57:25.653Z,4.20
2019-02-10T20:00:13.640Z,4.40
2019-02-10T20:03:01.496Z,4.40
2019-02-10T20:05:50.791Z,4.50
2019-02-10T20:08:36.934Z,4.50
2019-02-10T20:11:29.609Z,4.40
2019-02-10T20:14:08.436Z,4.80
2019-02-10T20:17:00.646Z,4.80
2019-02-10T20:19:44.458Z,4.70
2019-02-10T20:22:37.579Z,4.60
2019-02-10T20:25:39.363Z,4.50
2019-02-10T20:28:36.130Z,4.50
2019-02-10T20:31:28.266Z,4.70
2019-02-10T20:34:11.131Z,4.50
2019-02-10T20:37:05.840Z,4.70
2019-02-10T20:39:53.911Z,4.50
2019-02-10T20:42:31.011Z,4.60
2019-02-10T20:45:26.751Z,4.40
2019-02-10T20:48:24.492Z,4.40
2019-02-10T20:51:18.821Z,4.40
2019-02-10T20:54:08.407Z,4.40
2019-02-10T20:56:59.021Z,4.60
2019-02-10T20:59:45.808Z,4.60
2019-02-10T21:02:38.184Z,4.50
2019-02-10T21:05:32.135Z,4.40
2019-02-10T21:08:17.953Z,4.50
2019-02-10T21:11:19.449Z,4.50
2019-02-10T21:14:08.925Z,4.40
2019-02-10T21:17:02.017Z,4.50
2019-02-10T21:20:06.315Z,4.30
2019-02-10T21:22:54.652Z,4.30
2019-02-10T21:25:41.418Z,4.20
2019-02-10T21:28:18.953Z,4.00
2019-02-10T21:31:20.319Z,4.00
2019-02-10T21:34:09.908Z,4.00
2019-02-10T21:36:56.569Z,4.10
2019-02-10T21:39:51.875Z,3.90
2019-02-10T21:42:41.852Z,3.90
2019-02-10T21:45:20.004Z,3.80
2019-02-10T21:48:04.523Z,3.80
2019-02-10T21:50:34.882Z,3.80
2019-02-10T21:53:05.148Z,3.80
2019-02-10T21:55:36.780Z,3.80
2019-02-10T21:58:08.057Z,3.60
2019-02-10T22:00:38.614Z,3.90
2019-02-10T22:03:08.903Z,3.80
2019-02-10T22:05:39.126Z,3.90
2019-02-10T22:08:09.468Z,3.90
2019-02-10T22:10:39.849Z,4.00
2019-02-10T22:13:09.913Z,3.90
2019-02-10T22:15:40.095Z,3.90
2019-02-10T22:18:10.330Z,3.80
2019-02-10T22:20:42.437Z,3.80
2019-02-10T22:23:12.377Z,4.00
2019-02-10T22:25:42.971Z,3.90
2019-02-10T22:28:13.209Z,3.80
2019-02-10T22:30:43.428Z,3.70
2019-02-10T22:33:17.303Z,3.90
2019-02-10T22:35:47.459Z,3.90
2019-02-10T22:38:18.314Z,4.10
2019-02-10T22:40:48.459Z,4.00
2019-02-10T22:43:18.734Z,3.90
2019-02-10T22:45:49.101Z,4.10
2019-02-10T22:48:19.542Z,4.00
2019-02-10T22:50:49.989Z,4.00
2019-02-10T22:53:20.518Z,4.20
2019-02-10T22:55:50.708Z,4.00
2019-02-10T22:58:21.208Z,4.20
2019-02-10T23:00:57.204Z,4.20
2019-02-10T23:03:27.312Z,4.10
2019-02-10T23:05:57.481Z,4.50
2019-02-10T23:08:27.633Z,4.20
2019-02-10T23:10:58.303Z,4.20
2019-02-10T23:13:28.522Z,4.30
2019-02-10T23:15:58.638Z,4.30
2019-02-10T23:18:28.880Z,4.20
2019-02-10T23:20:59.180Z,4.40
2019-02-10T23:23:29.415Z,4.30
2019-02-10T23:25:59.502Z,4.30
2019-02-10T23:28:29.634Z,4.40
2019-02-10T23:30:59.806Z,4.30
2019-02-10T23:33:30.692Z,4.40
2019-02-10T23:36:00.780Z,4.50
2019-02-10T23:38:30.871Z,4.40
2019-02-10T23:41:01.194Z,4.30
2019-02-10T23:43:31.390Z,4.20
2019-02-10T23:46:01.462Z,4.00
2019-02-10T23:48:31.505Z,4.30
2019-02-10T23:51:01.704Z,4.40
2019-02-10T23:53:31.854Z,4.30
2019-02-10T23:56:02.239Z,4.10
2019-02-10T23:58:33.729Z,4.20
